createdAt,value
2018-08-11T00:01:07.220Z,75.11
2018-08-11T00:03:36.467Z,75.58
2018-08-11T00:06:05.777Z,75.42
2018-08-11T00:08:35.288Z,75.67
2018-08-11T00:11:04.626Z,75.95
2018-08-11T00:13:34.187Z,75.52
2018-08-11T00:16:03.732Z,75.47
2018-08-11T00:18:33.417Z,75.19
2018-08-11T00:21:02.669Z,75.72
2018-08-11T00:23:32.289Z,75.65
2018-08-11T00:26:01.705Z,75.41
2018-08-11T00:28:30.984Z,74.90
2018-08-11T00:31:00.612Z,74.84
2018-08-11T00:33:29.891Z,74.94
2018-08-11T00:35:59.203Z,74.62
2018-08-11T00:38:28.928Z,74.70
2018-08-11T00:40:58.648Z,74.60
2018-08-11T00:43:27.950Z,74.41
2018-08-11T00:45:57.532Z,74.47
2018-08-11T00:48:27.167Z,74.20
2018-08-11T00:50:56.558Z,73.81
2018-08-11T00:53:25.946Z,73.84
2018-08-11T00:55:55.445Z,73.74
2018-08-11T00:58:24.747Z,73.44
2018-08-11T01:00:54.418Z,73.45
2018-08-11T01:03:23.964Z,73.72
2018-08-11T01:05:54.041Z,73.22
2018-08-11T01:08:23.374Z,73.11
2018-08-11T01:10:52.788Z,73.19
2018-08-11T01:13:22.467Z,73.09
2018-08-11T01:15:51.899Z,72.80
2018-08-11T01:18:21.173Z,72.17
2018-08-11T01:20:50.499Z,72.24
2018-08-11T01:23:19.769Z,71.36
2018-08-11T01:25:49.214Z,70.83
2018-08-11T01:28:18.581Z,70.67
2018-08-11T01:30:47.942Z,70.36
2018-08-11T01:33:17.193Z,70.01
2018-08-11T01:35:47.120Z,69.44
2018-08-11T01:38:16.372Z,69.32
2018-08-11T01:40:45.825Z,69.17
2018-08-11T01:43:15.851Z,69.28
2018-08-11T01:45:45.173Z,69.19
2018-08-11T01:48:14.474Z,69.00
2018-08-11T01:50:43.794Z,69.13
2018-08-11T01:53:13.081Z,69.42
2018-08-11T01:55:42.454Z,69.31
2018-08-11T01:58:11.784Z,69.08
2018-08-11T02:00:41.037Z,69.10
2018-08-11T02:03:10.269Z,68.95
2018-08-11T02:05:39.647Z,69.22
2018-08-11T02:08:08.836Z,69.28
2018-08-11T02:10:38.094Z,69.24
2018-08-11T02:13:07.566Z,69.41
2018-08-11T02:15:36.797Z,69.38
2018-08-11T02:18:06.261Z,69.52
2018-08-11T02:20:36.443Z,68.98
2018-08-11T02:23:06.069Z,69.03
2018-08-11T02:25:35.322Z,67.06
2018-08-11T02:28:05.542Z,66.73
2018-08-11T02:30:34.874Z,66.17
2018-08-11T02:33:04.727Z,66.12
2018-08-11T02:35:33.958Z,66.13
2018-08-11T02:38:03.361Z,66.18
2018-08-11T02:40:33.761Z,66.39
2018-08-11T02:43:03.759Z,66.07
2018-08-11T02:45:32.957Z,66.26
2018-08-11T02:48:02.285Z,65.54
2018-08-11T02:50:33.071Z,65.34
2018-08-11T02:53:02.314Z,64.80
2018-08-11T02:55:31.602Z,64.84
2018-08-11T02:58:00.815Z,65.00
2018-08-11T03:00:30.086Z,65.17
2018-08-11T03:02:59.538Z,65.48
2018-08-11T03:05:28.919Z,65.62
2018-08-11T03:07:58.655Z,65.97
2018-08-11T03:10:28.398Z,65.96
2018-08-11T03:12:59.609Z,66.08
2018-08-11T03:15:29.049Z,66.33
2018-08-11T03:17:58.635Z,66.64
2018-08-11T03:20:27.997Z,66.66
2018-08-11T03:22:57.402Z,67.42
2018-08-11T03:25:26.852Z,67.33
2018-08-11T03:27:56.574Z,67.69
2018-08-11T03:30:26.093Z,67.92
2018-08-11T03:32:55.589Z,67.96
2018-08-11T03:35:24.989Z,68.29
2018-08-11T03:37:54.440Z,68.54
2018-08-11T03:40:23.910Z,68.64
2018-08-11T03:42:53.355Z,69.09
2018-08-11T03:45:22.942Z,69.28
2018-08-11T03:47:52.317Z,69.70
2018-08-11T03:50:22.293Z,69.69
2018-08-11T03:52:52.389Z,69.69
2018-08-11T03:55:21.667Z,69.86
2018-08-11T03:57:51.054Z,69.90
2018-08-11T04:00:20.366Z,70.29
2018-08-11T04:02:49.669Z,70.36
2018-08-11T04:05:19.017Z,70.30
2018-08-11T04:07:48.974Z,70.07
2018-08-11T04:10:18.213Z,70.16
2018-08-11T04:12:48.240Z,69.99
2018-08-11T04:15:17.442Z,70.37
2018-08-11T04:17:46.678Z,70.70
2018-08-11T04:20:16.728Z,70.70
2018-08-11T04:22:45.969Z,70.71
2018-08-11T04:25:15.328Z,70.47
2018-08-11T04:27:44.745Z,71.12
2018-08-11T04:30:13.944Z,71.00
2018-08-11T04:32:43.357Z,71.96
2018-08-11T04:35:12.621Z,72.95
2018-08-11T04:37:41.864Z,73.53
2018-08-11T04:40:11.144Z,73.94
2018-08-11T04:42:40.436Z,73.37
2018-08-11T04:45:09.693Z,75.07
2018-08-11T04:47:39.393Z,74.43
2018-08-11T04:50:08.629Z,76.05
2018-08-11T04:52:37.900Z,76.74
2018-08-11T04:55:07.401Z,79.65
2018-08-11T04:57:36.737Z,81.69
2018-08-11T05:00:06.611Z,84.24
2018-08-11T05:02:35.835Z,86.94
2018-08-11T05:05:06.226Z,87.64
2018-08-11T05:07:35.465Z,88.26
2018-08-11T05:10:05.389Z,88.41
2018-08-11T05:12:34.696Z,89.91
2018-08-11T05:15:04.616Z,90.45
2018-08-11T05:17:33.858Z,90.68
2018-08-11T05:20:03.512Z,90.75
2018-08-11T05:22:32.884Z,90.67
2018-08-11T05:25:02.264Z,90.50
2018-08-11T05:27:31.574Z,90.57
2018-08-11T05:30:00.881Z,91.30
2018-08-11T05:32:30.120Z,89.68
2018-08-11T05:35:00.190Z,89.79
2018-08-11T05:37:29.490Z,91.22
2018-08-11T05:39:58.868Z,90.07
2018-08-11T05:42:28.561Z,90.30
2018-08-11T05:44:58.037Z,90.08
2018-08-11T05:47:27.776Z,89.02
2018-08-11T05:49:57.959Z,88.74
2018-08-11T05:52:27.538Z,89.72
2018-08-11T05:54:56.992Z,89.98
2018-08-11T05:57:26.507Z,89.08
2018-08-11T05:59:56.021Z,89.97
2018-08-11T06:02:25.403Z,88.19
2018-08-11T06:04:55.685Z,87.65
2018-08-11T06:07:25.949Z,87.37
2018-08-11T06:09:55.617Z,86.88
2018-08-11T06:12:25.426Z,86.56
2018-08-11T06:14:54.907Z,87.36
2018-08-11T06:17:24.413Z,86.29
2018-08-11T06:19:54.379Z,86.59
2018-08-11T06:22:23.774Z,85.31
2018-08-11T06:24:53.099Z,85.76
2018-08-11T06:27:23.317Z,85.15
2018-08-11T06:29:52.617Z,84.96
2018-08-11T06:32:22.009Z,84.66
2018-08-11T06:34:51.461Z,85.05
2018-08-11T06:37:20.733Z,85.39
2018-08-11T06:39:49.994Z,84.96
2018-08-11T06:42:19.287Z,85.11
2018-08-11T06:44:48.493Z,85.17
2018-08-11T06:47:17.819Z,84.75
2018-08-11T06:49:47.753Z,84.81
2018-08-11T06:52:17.809Z,84.29
2018-08-11T06:54:47.123Z,85.29
2018-08-11T06:57:17.375Z,84.05
2018-08-11T06:59:47.102Z,84.05
2018-08-11T07:02:16.323Z,83.48
2018-08-11T07:04:45.603Z,83.48
2018-08-11T07:07:14.947Z,83.18
2018-08-11T07:09:44.295Z,82.69
2018-08-11T07:12:13.853Z,81.88
2018-08-11T07:14:43.075Z,82.32
2018-08-11T07:17:13.051Z,81.99
2018-08-11T07:19:43.637Z,81.82
2018-08-11T07:22:12.881Z,81.70
2018-08-11T07:24:42.125Z,81.64
2018-08-11T07:27:12.224Z,80.29
2018-08-11T07:29:41.453Z,80.43
2018-08-11T07:32:10.737Z,80.20
2018-08-11T07:34:40.736Z,80.11
2018-08-11T07:37:09.997Z,80.06
2018-08-11T07:39:40.443Z,79.48
2018-08-11T07:42:09.718Z,80.06
2018-08-11T07:45:41.916Z,80.25
2018-08-11T07:48:12.405Z,79.04
2018-08-11T07:50:41.987Z,77.33
2018-08-11T07:53:11.339Z,75.76
2018-08-11T07:55:41.629Z,75.44
2018-08-11T07:58:10.902Z,75.35
2018-08-11T08:00:40.348Z,75.68
2018-08-11T08:03:10.060Z,74.35
2018-08-11T08:05:39.375Z,74.08
2018-08-11T08:08:08.623Z,73.84
2018-08-11T08:10:38.200Z,73.08
2018-08-11T08:13:07.489Z,72.69
2018-08-11T08:15:36.861Z,71.64
2018-08-11T08:18:07.684Z,72.11
2018-08-11T08:20:39.922Z,71.51
2018-08-11T08:23:09.237Z,70.79
2018-08-11T08:25:40.571Z,71.18
2018-08-11T08:28:09.852Z,69.90
2018-08-11T08:30:40.474Z,69.25
2018-08-11T08:33:09.773Z,68.84
2018-08-11T08:35:39.277Z,68.67
2018-08-11T08:38:08.654Z,66.75
2018-08-11T08:40:38.084Z,66.57
2018-08-11T08:43:07.585Z,66.85
2018-08-11T08:45:36.888Z,65.81
2018-08-11T08:48:06.366Z,65.02
2018-08-11T08:50:36.185Z,64.87
2018-08-11T08:53:05.458Z,64.76
2018-08-11T08:55:34.705Z,63.83
2018-08-11T08:58:03.988Z,62.99
2018-08-11T09:00:33.773Z,62.47
2018-08-11T09:03:04.325Z,62.23
2018-08-11T09:05:33.859Z,62.32
2018-08-11T09:08:03.881Z,61.62
2018-08-11T09:10:33.180Z,61.47
2018-08-11T09:13:02.698Z,61.08
2018-08-11T09:15:32.747Z,60.59
2018-08-11T09:18:02.061Z,58.24
2018-08-11T09:20:31.683Z,58.34
2018-08-11T09:23:01.186Z,59.23
2018-08-11T09:25:30.522Z,60.22
2018-08-11T09:28:00.262Z,67.88
2018-08-11T09:30:29.706Z,70.76
2018-08-11T09:32:59.103Z,74.44
2018-08-11T09:35:28.786Z,75.49
2018-08-11T09:37:58.625Z,76.19
2018-08-11T09:40:28.053Z,76.91
2018-08-11T09:42:57.450Z,76.83
2018-08-11T09:45:27.078Z,74.82
2018-08-11T09:47:56.713Z,72.64
2018-08-11T09:50:26.156Z,68.68
2018-08-11T09:52:56.308Z,65.44
2018-08-11T09:55:25.812Z,62.44
2018-08-11T09:57:55.414Z,61.35
2018-08-11T10:00:30.549Z,60.80
2018-08-11T10:02:59.862Z,59.62
2018-08-11T10:05:29.337Z,58.64
2018-08-11T10:07:59.306Z,57.28
2018-08-11T10:10:28.711Z,56.23
2018-08-11T10:12:58.096Z,55.28
2018-08-11T10:15:28.512Z,57.17
2018-08-11T10:17:58.126Z,60.16
2018-08-11T10:20:27.937Z,61.99
2018-08-11T10:22:58.636Z,63.47
2018-08-11T10:25:28.397Z,63.46
2018-08-11T10:27:58.176Z,65.55
2018-08-11T10:30:27.980Z,65.90
2018-08-11T10:32:57.973Z,67.85
2018-08-11T10:35:27.391Z,67.89
2018-08-11T10:37:56.960Z,67.86
2018-08-11T10:40:26.829Z,67.07
2018-08-11T10:42:56.337Z,65.07
2018-08-11T10:45:26.835Z,62.86
2018-08-11T10:47:56.974Z,63.36
2018-08-11T10:50:26.818Z,64.24
2018-08-11T10:52:57.512Z,61.14
2018-08-11T10:55:28.022Z,60.37
2018-08-11T10:57:57.684Z,59.92
2018-08-11T11:00:27.471Z,60.72
2018-08-11T11:02:57.053Z,61.41
2018-08-11T11:05:26.689Z,59.73
2018-08-11T11:07:56.117Z,60.12
2018-08-11T11:10:25.714Z,60.81
2018-08-11T11:12:55.297Z,62.17
2018-08-11T11:15:25.781Z,62.35
2018-08-11T11:17:55.231Z,62.30
2018-08-11T11:20:24.770Z,61.90
2018-08-11T11:22:54.304Z,61.50
2018-08-11T11:25:24.173Z,64.73
2018-08-11T11:27:53.717Z,70.76
2018-08-11T11:30:24.171Z,74.09
2018-08-11T11:32:54.320Z,77.29
2018-08-11T11:35:24.140Z,80.99
2018-08-11T11:37:54.241Z,83.60
2018-08-11T11:40:23.755Z,86.33
2018-08-11T11:42:53.755Z,88.13
2018-08-11T11:45:24.049Z,88.98
2018-08-11T11:47:55.153Z,90.57
2018-08-11T11:50:24.629Z,91.69
2018-08-11T11:52:56.979Z,91.65
2018-08-11T11:55:26.435Z,90.30
2018-08-11T11:57:57.849Z,91.15
2018-08-11T12:00:28.547Z,91.10
2018-08-11T12:02:58.203Z,89.73
2018-08-11T12:05:27.626Z,89.59
2018-08-11T12:07:56.955Z,89.70
2018-08-11T12:10:26.456Z,89.09
2018-08-11T12:12:56.088Z,88.14
2018-08-11T12:15:25.925Z,87.94
2018-08-11T12:17:55.559Z,86.50
2018-08-11T12:20:24.992Z,84.98
2018-08-11T12:22:54.638Z,84.13
2018-08-11T12:25:26.027Z,83.30
2018-08-11T12:27:56.781Z,79.53
2018-08-11T12:30:26.636Z,73.40
2018-08-11T12:32:57.761Z,71.56
2018-08-11T12:35:27.515Z,68.65
2018-08-11T12:37:57.220Z,65.02
2018-08-11T12:40:27.039Z,63.83
2018-08-11T12:45:36.595Z,66.73
2018-08-11T12:48:06.315Z,66.22
2018-08-11T12:50:36.106Z,64.71
2018-08-11T12:53:05.862Z,63.50
2018-08-11T12:55:36.225Z,62.21
2018-08-11T12:58:06.529Z,58.77
2018-08-11T13:00:35.929Z,57.75
2018-08-11T13:03:05.684Z,58.60
2018-08-11T13:05:35.194Z,59.54
2018-08-11T13:08:04.525Z,61.68
2018-08-11T13:10:34.024Z,63.07
2018-08-11T13:13:03.507Z,64.12
2018-08-11T13:15:33.951Z,64.53
2018-08-11T13:18:03.339Z,73.39
2018-08-11T13:20:32.925Z,79.04
2018-08-11T13:23:02.659Z,82.86
2018-08-11T13:25:32.129Z,84.94
2018-08-11T13:28:03.576Z,85.70
2018-08-11T13:30:33.084Z,85.03
2018-08-11T13:33:02.570Z,84.48
2018-08-11T13:35:33.284Z,85.00
2018-08-11T13:40:10.350Z,85.91
2018-08-11T13:42:40.040Z,84.30
2018-08-11T13:45:09.395Z,81.01
2018-08-11T13:47:38.662Z,76.63
2018-08-11T13:50:09.018Z,79.14
2018-08-11T13:52:38.338Z,77.26
2018-08-11T13:55:07.880Z,72.98
2018-08-11T13:57:37.852Z,70.68
2018-08-11T14:00:08.190Z,69.91
2018-08-11T14:02:37.503Z,70.43
2018-08-11T14:05:07.267Z,66.29
2018-08-11T14:07:36.811Z,65.21
2018-08-11T14:10:07.925Z,63.01
2018-08-11T14:12:37.393Z,61.65
2018-08-11T14:15:07.250Z,60.83
2018-08-11T14:17:36.535Z,61.76
2018-08-11T14:20:07.145Z,61.28
2018-08-11T14:22:36.749Z,59.05
2018-08-11T14:25:06.670Z,59.67
2018-08-11T14:27:35.993Z,57.99
2018-08-11T14:30:07.477Z,60.58
2018-08-11T14:32:36.957Z,61.66
2018-08-11T14:35:06.242Z,62.32
2018-08-11T14:37:46.214Z,61.98
2018-08-11T14:40:15.628Z,62.77
2018-08-11T14:42:49.333Z,61.93
2018-08-11T14:45:19.194Z,61.87
2018-08-11T14:47:49.256Z,59.03
2018-08-11T14:50:19.111Z,60.73
2018-08-11T14:52:48.815Z,60.77
2018-08-11T14:55:18.143Z,59.25
2018-08-11T14:57:47.411Z,57.22
2018-08-11T15:00:16.791Z,54.18
2018-08-11T15:02:46.479Z,53.43
2018-08-11T15:05:16.530Z,52.91
2018-08-11T15:07:46.539Z,52.02
2018-08-11T15:10:15.861Z,49.92
2018-08-11T15:12:45.989Z,48.83
2018-08-11T15:15:15.319Z,49.65
2018-08-11T15:17:44.593Z,49.95
2018-08-11T15:20:14.219Z,51.39
2018-08-11T15:22:43.486Z,53.96
2018-08-11T15:25:12.720Z,53.74
2018-08-11T15:27:42.008Z,54.55
2018-08-11T15:30:12.658Z,56.46
2018-08-11T15:32:41.885Z,55.84
2018-08-11T15:35:11.261Z,54.43
2018-08-11T15:37:40.673Z,52.89
2018-08-11T15:40:09.994Z,52.72
2018-08-11T15:42:39.753Z,51.27
2018-08-11T15:45:08.981Z,50.37
2018-08-11T15:47:38.374Z,51.28
2018-08-11T15:50:07.688Z,52.31
2018-08-11T15:52:37.168Z,54.27
2018-08-11T15:55:08.012Z,56.41
2018-08-11T15:57:37.596Z,57.17
2018-08-11T16:00:08.218Z,58.81
2018-08-11T16:02:37.776Z,59.37
2018-08-11T16:05:07.267Z,61.16
2018-08-11T16:07:37.204Z,62.20
2018-08-11T16:10:07.261Z,58.94
2018-08-11T16:12:36.573Z,58.51
2018-08-11T16:15:06.029Z,59.36
2018-08-11T16:17:35.810Z,59.41
2018-08-11T16:20:05.303Z,60.61
2018-08-11T16:22:36.387Z,62.00
2018-08-11T16:25:05.720Z,62.95
2018-08-11T16:27:35.067Z,64.40
2018-08-11T16:30:05.138Z,64.74
2018-08-11T16:32:45.056Z,64.37
2018-08-11T16:35:15.193Z,64.25
2018-08-11T16:37:44.452Z,65.29
2018-08-11T16:40:13.762Z,64.62
2018-08-11T16:42:44.542Z,63.95
2018-08-11T16:45:13.920Z,63.16
2018-08-11T16:47:43.279Z,60.23
2018-08-11T16:50:12.621Z,59.18
2018-08-11T16:52:41.917Z,59.53
2018-08-11T16:55:11.198Z,57.88
2018-08-11T16:57:40.618Z,58.29
2018-08-11T17:00:11.801Z,58.25
2018-08-11T17:02:41.860Z,58.03
2018-08-11T17:05:11.394Z,57.45
2018-08-11T17:07:40.767Z,58.09
2018-08-11T17:10:10.920Z,58.76
2018-08-11T17:12:40.485Z,59.73
2018-08-11T17:15:10.503Z,60.42
2018-08-11T17:17:39.773Z,61.34
2018-08-11T17:20:09.089Z,63.25
2018-08-11T17:22:38.306Z,64.39
2018-08-11T17:25:08.877Z,65.40
2018-08-11T17:27:38.353Z,65.49
2018-08-11T17:30:07.808Z,65.54
2018-08-11T17:32:38.095Z,65.27
2018-08-11T17:35:07.707Z,64.94
2018-08-11T17:37:37.016Z,64.96
2018-08-11T17:40:08.221Z,64.61
2018-08-11T17:42:37.746Z,65.16
2018-08-11T17:45:07.419Z,64.39
2018-08-11T17:47:37.129Z,65.26
2018-08-11T17:50:07.030Z,65.56
2018-08-11T17:52:36.717Z,66.25
2018-08-11T17:55:06.222Z,66.33
2018-08-11T17:57:35.710Z,67.28
2018-08-11T18:00:05.872Z,67.75
2018-08-11T18:02:36.597Z,68.89
2018-08-11T18:05:06.631Z,69.32
2018-08-11T18:07:36.389Z,68.78
2018-08-11T18:10:06.330Z,68.48
2018-08-11T18:12:36.049Z,68.63
2018-08-11T18:15:06.065Z,67.90
2018-08-11T18:17:35.801Z,68.19
2018-08-11T18:20:05.649Z,68.01
2018-08-11T18:22:34.983Z,68.41
2018-08-11T18:25:05.395Z,68.72
2018-08-11T18:27:35.128Z,69.24
2018-08-11T18:30:05.259Z,69.40
2018-08-11T18:32:35.358Z,70.36
2018-08-11T18:35:05.080Z,71.34
2018-08-11T18:37:34.675Z,71.24
2018-08-11T18:40:05.288Z,71.73
2018-08-11T18:42:35.051Z,71.86
2018-08-11T18:45:05.154Z,72.38
2018-08-11T18:47:35.902Z,72.92
2018-08-11T18:50:05.567Z,72.31
2018-08-11T18:52:35.596Z,73.29
2018-08-11T18:55:06.949Z,73.34
2018-08-11T18:57:36.745Z,72.96
2018-08-11T19:00:11.282Z,73.34
2018-08-11T19:02:41.422Z,73.42
2018-08-11T19:05:10.861Z,73.52
2018-08-11T19:07:41.447Z,73.20
2018-08-11T19:10:12.101Z,72.94
2018-08-11T19:12:41.541Z,72.80
2018-08-11T19:15:13.562Z,73.35
2018-08-11T19:17:42.927Z,73.72
2018-08-11T19:20:13.303Z,74.09
2018-08-11T19:22:43.265Z,74.98
2018-08-11T19:25:13.292Z,75.36
2018-08-11T19:27:42.610Z,75.61
2018-08-11T19:30:13.209Z,75.97
2018-08-11T19:32:42.659Z,76.40
2018-08-11T19:35:11.970Z,77.14
2018-08-11T19:37:41.377Z,77.74
2018-08-11T19:40:10.873Z,78.04
2018-08-11T19:42:40.313Z,78.75
2018-08-11T19:45:11.632Z,79.20
2018-08-11T19:47:41.957Z,79.64
2018-08-11T19:50:12.961Z,80.07
2018-08-11T19:52:42.552Z,80.41
2018-08-11T19:55:11.830Z,80.61
2018-08-11T19:57:41.695Z,80.87
2018-08-11T20:00:13.146Z,81.23
2018-08-11T20:02:43.109Z,81.32
2018-08-11T20:05:12.678Z,81.54
2018-08-11T20:07:41.965Z,81.26
2018-08-11T20:10:12.156Z,81.53
2018-08-11T20:12:41.956Z,81.34
2018-08-11T20:15:11.265Z,81.28
2018-08-11T20:17:40.688Z,80.79
2018-08-11T20:20:10.853Z,80.83
2018-08-11T20:22:40.196Z,80.49
2018-08-11T20:25:10.216Z,80.02
2018-08-11T20:27:39.549Z,79.83
2018-08-11T20:30:10.265Z,79.80
2018-08-11T20:32:39.643Z,79.55
2018-08-11T20:35:08.962Z,79.29
2018-08-11T20:37:38.237Z,79.05
2018-08-11T20:40:08.686Z,78.57
2018-08-11T20:42:38.192Z,78.53
2018-08-11T20:45:08.877Z,78.35
2018-08-11T20:47:38.251Z,78.33
2018-08-11T20:50:08.330Z,78.29
2018-08-11T20:52:39.257Z,78.11
2018-08-11T20:55:09.273Z,78.20
2018-08-11T20:57:38.793Z,77.77
2018-08-11T21:00:10.360Z,77.87
2018-08-11T21:02:40.355Z,77.66
2018-08-11T21:05:13.220Z,77.82
2018-08-11T21:07:42.640Z,77.96
2018-08-11T21:10:14.327Z,77.81
2018-08-11T21:12:44.320Z,77.98
2018-08-11T21:15:13.888Z,78.16
2018-08-11T21:17:43.488Z,78.11
2018-08-11T21:20:14.057Z,78.29
2018-08-11T21:22:43.798Z,78.46
2018-08-11T21:25:13.400Z,78.22
2018-08-11T21:27:42.853Z,78.16
2018-08-11T21:30:13.740Z,78.71
2018-08-11T21:32:43.357Z,79.78
2018-08-11T21:35:12.595Z,79.57
2018-08-11T21:37:41.991Z,79.08
2018-08-11T21:40:14.971Z,79.69
2018-08-11T21:42:44.752Z,80.13
2018-08-11T21:45:14.158Z,80.21
2018-08-11T21:47:43.640Z,79.86
2018-08-11T21:50:12.925Z,80.03
2018-08-11T21:52:42.225Z,80.50
2018-08-11T21:55:12.301Z,80.87
2018-08-11T21:57:41.784Z,80.73
2018-08-11T22:00:46.166Z,80.21
2018-08-11T22:03:16.133Z,80.30
2018-08-11T22:05:45.598Z,80.35
2018-08-11T22:08:15.352Z,80.69
2018-08-11T22:10:45.454Z,80.47
2018-08-11T22:13:15.019Z,79.95
2018-08-11T22:15:44.541Z,80.34
2018-08-11T22:18:13.999Z,79.19
2018-08-11T22:20:43.795Z,79.83
2018-08-11T22:23:13.168Z,80.03
2018-08-11T22:25:42.751Z,79.54
2018-08-11T22:28:12.107Z,79.01
2018-08-11T22:30:41.753Z,79.45
2018-08-11T22:33:11.286Z,79.56
2018-08-11T22:35:40.827Z,81.08
2018-08-11T22:38:10.661Z,80.90
2018-08-11T22:40:39.952Z,80.97
2018-08-11T22:43:09.273Z,81.13
2018-08-11T22:45:38.713Z,80.26
2018-08-11T22:48:08.103Z,80.20
2018-08-11T22:50:37.394Z,80.63
2018-08-11T22:53:07.440Z,81.24
2018-08-11T22:55:37.735Z,81.24
2018-08-11T22:58:07.610Z,81.00
2018-08-11T23:00:37.108Z,81.25
2018-08-11T23:03:06.633Z,81.34
2018-08-11T23:05:37.205Z,81.02
2018-08-11T23:08:06.447Z,81.95
2018-08-11T23:10:35.767Z,82.82
2018-08-11T23:13:05.178Z,82.86
2018-08-11T23:15:34.723Z,82.94
2018-08-11T23:18:04.688Z,83.80
2018-08-11T23:20:34.325Z,84.31
2018-08-11T23:23:03.820Z,84.34
2018-08-11T23:25:33.365Z,83.78
2018-08-11T23:28:02.905Z,84.01
2018-08-11T23:30:32.474Z,84.30
2018-08-11T23:33:01.980Z,84.57
2018-08-11T23:35:31.762Z,85.08
2018-08-11T23:38:01.265Z,84.57
2018-08-11T23:40:31.186Z,84.52
2018-08-11T23:43:00.929Z,84.86
2018-08-11T23:45:32.047Z,84.98
2018-08-11T23:48:01.611Z,84.66
2018-08-11T23:50:31.079Z,85.55
2018-08-11T23:53:01.368Z,85.54
2018-08-11T23:55:30.829Z,85.63
2018-08-11T23:58:00.524Z,85.64
